LPPR/OPO METAR and TAF weather

Enter ICAO airport designator
Station Type Date Time Source
LPPR METAR 2019/02/23 23:00 UTC NOAA

LPPR 232300Z VRB02KT CAVOK 11/08 Q1028


Station Type Date Time Source
LPPR Decoded METAR 2019/02/23 23:00 UTC NOAA

Porto / Pedras Rubras, Portugal (LPPR) 41-14N 008-41W 77M
Feb 23, 2019 - 06:00 PM EST / 2019.02.23 2300 UTC
Wind: Variable at 2 MPH (2 KT):0
Visibility: greater than 7 mile(s):0
Temperature: 51 F (11 C)
Dew Point: 46 F (8 C)
Relative Humidity: 81%
Pressure (altimeter): 30.36 in. Hg (1028 hPa)
ob: LPPR 232300Z VRB02KT CAVOK 11/08 Q1028
cycle: 23

Station Type Date Time Source
LPPR TAF 2019/02/23 18:18 UTC NOAA

TAF LPPR 231700Z 2318/2418 31005KT CAVOK
BECMG 2318/2321 VRB03KT
BECMG 2322/2402 09008KT
BECMG 2416/2418 VRB03KT


Example: see airport list